Time;durP1;ratioP1;P1;durP2;ratioP2;P2;SDS_P1;SDS_P2;PMS_P1;PMS_P2;Temp;Humidity;BMP_temperature;BMP_pressure;BME280_temperature;BME280_humidity;BME280_pressure;Samples;Min_cycle;Max_cycle;Signal;HPM_P1;HPM_P2
2021/12/26 00:01:39;;;;;;;8.93;6.53;;;;;;;-1.59;100.00;99671.78;5027718;28;20037;-57
2021/12/26 00:04:05;;;;;;;7.05;5.47;;;;;;;-1.65;100.00;99671.03;5027810;28;20028;-57
2021/12/26 00:06:31;;;;;;;8.70;6.45;;;;;;;-1.95;100.00;99619.94;5027293;28;20028;-57
2021/12/26 00:08:58;;;;;;;9.13;6.28;;;;;;;-1.74;100.00;99660.84;5027198;28;20885;-59
2021/12/26 00:11:24;;;;;;;12.60;6.05;;;;;;;-1.79;100.00;99662.66;5026926;28;20048;-57
2021/12/26 00:13:50;;;;;;;9.77;6.43;;;;;;;-1.84;100.00;99664.41;5027295;28;20221;-57
2021/12/26 00:16:16;;;;;;;10.50;7.03;;;;;;;-1.89;100.00;99669.59;5041474;28;20028;-57
2021/12/26 00:18:44;;;;;;;12.75;6.90;;;;;;;-1.93;100.00;99669.69;5026856;28;20035;-57
2021/12/26 00:21:11;;;;;;;13.32;7.70;;;;;;;-1.96;100.00;99672.28;5009209;28;20029;-57
2021/12/26 00:23:36;;;;;;;9.43;6.93;;;;;;;-1.97;100.00;99665.44;5027330;28;20029;-58
2021/12/26 00:26:02;;;;;;;9.70;6.70;;;;;;;-2.19;100.00;99627.09;5027237;28;20036;-57
2021/12/26 00:28:27;;;;;;;8.82;6.65;;;;;;;-1.93;100.00;99654.25;5026875;28;20034;-57
2021/12/26 00:30:53;;;;;;;9.95;7.15;;;;;;;-1.93;100.00;99660.25;5026783;28;20883;-57
2021/12/26 00:33:18;;;;;;;10.82;7.20;;;;;;;-1.95;100.00;99658.53;5026938;28;20028;-57
2021/12/26 00:35:44;;;;;;;11.38;7.63;;;;;;;-2.02;100.00;99646.59;5026795;28;20028;-57
2021/12/26 00:38:10;;;;;;;10.05;6.78;;;;;;;-2.01;100.00;99656.91;5026733;28;20874;-57
2021/12/26 00:40:35;;;;;;;9.13;6.97;;;;;;;-2.19;100.00;99637.38;5025797;28;20655;-57
2021/12/26 00:43:01;;;;;;;9.88;8.05;;;;;;;-2.03;100.00;99657.78;5008886;28;20016;-57
2021/12/26 00:45:26;;;;;;;12.10;7.00;;;;;;;-2.06;100.00;99662.09;5027046;28;20078;-57
2021/12/26 00:47:52;;;;;;;10.88;8.18;;;;;;;-2.09;100.00;99664.69;5026617;28;20909;-57
2021/12/26 00:50:23;;;;;;;12.10;8.32;;;;;;;-2.11;100.00;99657.88;5026285;28;20122;-57
2021/12/26 00:52:48;;;;;;;13.73;7.82;;;;;;;-2.13;100.00;99652.72;5025991;28;20028;-57
2021/12/26 00:55:14;;;;;;;11.07;7.78;;;;;;;-2.15;100.00;99656.19;5026376;28;20060;-57
2021/12/26 00:57:40;;;;;;;12.30;7.75;;;;;;;-2.16;100.00;99651.91;5026171;28;20028;-57
2021/12/26 01:00:09;;;;;;;11.95;8.10;;;;;;;-2.26;100.00;99640.88;5026117;28;20024;-57
2021/12/26 01:02:34;;;;;;;11.15;8.18;;;;;;;-2.68;100.00;99572.78;5025936;28;20028;-57
2021/12/26 01:05:00;;;;;;;13.73;8.88;;;;;;;-2.22;100.00;99652.84;5025817;28;20033;-57
2021/12/26 01:07:42;;;;;;;12.00;8.65;;;;;;;-2.24;100.00;99651.16;5024697;28;20059;-57
2021/12/26 01:10:07;;;;;;;11.70;7.95;;;;;;;-2.25;100.00;99655.44;5026040;28;20951;-57
2021/12/26 01:12:34;;;;;;;11.45;8.40;;;;;;;-2.27;100.00;99649.47;5026394;28;20024;-57
2021/12/26 01:15:04;;;;;;;12.18;7.85;;;;;;;-2.28;100.00;99641.78;5025751;28;20131;-58
2021/12/26 01:17:30;;;;;;;11.75;9.00;;;;;;;-2.31;100.00;99645.22;5025888;28;20036;-58
2021/12/26 01:19:56;;;;;;;11.07;7.97;;;;;;;-2.30;100.00;99646.91;5026497;28;20087;-58
2021/12/26 01:22:23;;;;;;;11.23;8.77;;;;;;;-2.31;100.00;99646.94;5027832;28;20154;-58
2021/12/26 01:24:55;;;;;;;12.65;9.00;;;;;;;-2.45;100.00;99623.94;5026243;28;20024;-58
2021/12/26 01:27:25;;;;;;;11.98;8.10;;;;;;;-2.33;100.00;99649.53;5027435;28;20177;-58
2021/12/26 01:29:50;;;;;;;10.68;8.35;;;;;;;-2.32;100.00;99646.09;5027084;28;20377;-58
2021/12/26 01:32:17;;;;;;;14.30;9.65;;;;;;;-2.61;100.00;99597.56;5027539;28;20029;-58
2021/12/26 01:34:43;;;;;;;12.90;9.55;;;;;;;-2.45;100.00;99629.09;5026493;28;20033;-58
2021/12/26 01:37:09;;;;;;;15.90;9.35;;;;;;;-2.34;100.00;99653.00;5027319;28;20032;-58
2021/12/26 01:39:34;;;;;;;16.35;10.10;;;;;;;-2.33;100.00;99643.56;5027418;28;20254;-58
2021/12/26 01:42:02;;;;;;;16.25;11.35;;;;;;;-2.32;100.00;99640.94;5027221;28;20043;-58
2021/12/26 01:44:29;;;;;;;16.23;10.25;;;;;;;-2.29;100.00;99634.91;5027266;28;20039;-58
2021/12/26 01:46:55;;;;;;;14.73;10.05;;;;;;;-2.50;100.00;99609.44;5027157;28;20036;-57
2021/12/26 01:49:23;;;;;;;15.77;10.85;;;;;;;-2.28;100.00;99634.91;5026428;28;20035;-58
2021/12/26 01:51:51;;;;;;;16.63;10.70;;;;;;;-2.27;100.00;99638.34;5027384;28;20039;-59
2021/12/26 01:54:31;;;;;;;16.38;11.02;;;;;;;-2.27;100.00;99634.06;5026987;28;20865;-58
2021/12/26 01:56:59;;;;;;;19.35;11.30;;;;;;;-2.27;100.00;99639.19;5026454;28;20896;-57
2021/12/26 01:59:24;;;;;;;14.75;10.60;;;;;;;-2.25;100.00;99641.72;5026680;28;20028;-58
2021/12/26 02:01:49;;;;;;;16.60;11.23;;;;;;;-2.55;100.00;99585.50;5026788;28;20952;-57
2021/12/26 02:04:15;;;;;;;15.68;10.95;;;;;;;-2.72;100.00;99558.25;5025420;28;20035;-57
2021/12/26 02:06:40;;;;;;;18.67;12.57;;;;;;;-2.25;100.00;99632.31;5027265;28;20027;-58
2021/12/26 02:09:07;;;;;;;19.70;10.82;;;;;;;-2.22;100.00;99644.25;5025229;28;20056;-57
2021/12/26 02:11:33;;;;;;;15.98;11.35;;;;;;;-2.18;100.00;99631.38;5025500;28;20029;-57
2021/12/26 02:13:58;;;;;;;16.10;11.95;;;;;;;-2.18;100.00;99623.66;5027000;28;20875;-58
2021/12/26 02:16:24;;;;;;;17.27;12.27;;;;;;;-2.09;100.00;99632.97;5027142;28;20791;-58
2021/12/26 02:18:49;;;;;;;16.83;12.45;;;;;;;-2.10;100.00;99621.00;5025302;28;20900;-57
2021/12/26 02:23:56;;;;;;;19.23;13.45;;;;;;;-1.88;100.00;99642.16;5025440;28;20041;-58
2021/12/26 02:29:06;;;;;;;21.17;13.27;;;;;;;-1.66;100.00;99638.44;5027972;28;20039;-58
2021/12/26 02:31:31;;;;;;;21.05;14.57;;;;;;;-1.58;100.00;99641.75;5028712;28;20029;-57
2021/12/26 02:33:56;;;;;;;21.55;14.63;;;;;;;-1.49;100.00;99631.34;5026524;28;20025;-57
2021/12/26 02:36:22;;;;;;;22.13;14.68;;;;;;;-1.38;100.00;99632.03;5026660;28;20135;-57
2021/12/26 02:38:48;;;;;;;23.65;15.65;;;;;;;-1.53;100.00;99593.63;5025465;28;20136;-58
2021/12/26 02:41:13;;;;;;;19.13;14.30;;;;;;;-1.33;100.00;99617.38;5024820;28;20025;-58
2021/12/26 02:43:39;;;;;;;22.02;14.55;;;;;;;-1.14;100.00;99626.50;5025503;28;20032;-58
2021/12/26 02:46:06;;;;;;;19.30;14.85;;;;;;;-1.07;100.00;99624.69;5029895;28;21016;-58
2021/12/26 02:48:34;;;;;;;23.52;15.05;;;;;;;-1.01;100.00;99629.72;5030959;28;20075;-58
2021/12/26 02:51:00;;;;;;;21.02;14.57;;;;;;;-0.98;100.00;99616.78;5024323;28;20079;-58
2021/12/26 02:53:26;;;;;;;19.17;14.68;;;;;;;-0.92;100.00;99613.28;5024804;28;20012;-58
2021/12/26 02:55:53;;;;;;;21.40;14.82;;;;;;;-0.87;100.00;99616.63;5024868;28;20044;-58
2021/12/26 02:58:19;;;;;;;20.52;15.15;;;;;;;-0.84;100.00;99616.56;5024750;28;20863;-58
2021/12/26 03:00:49;;;;;;;20.50;14.25;;;;;;;-0.79;100.00;99615.63;5025232;28;20073;-58
2021/12/26 03:03:14;;;;;;;22.10;15.90;;;;;;;-0.78;100.00;99613.91;5025332;28;20029;-58
2021/12/26 03:05:42;;;;;;;23.50;15.38;;;;;;;-0.77;100.00;99606.13;5024772;28;20036;-58
2021/12/26 03:08:10;;;;;;;21.23;14.45;;;;;;;-0.72;100.00;99621.53;5024133;28;20032;-58
2021/12/26 03:10:36;;;;;;;26.85;15.52;;;;;;;-0.72;100.00;99599.19;5023904;28;20036;-58
2021/12/26 03:13:04;;;;;;;17.95;13.93;;;;;;;-0.70;100.00;99607.72;5024711;28;20027;-57
2021/12/26 03:15:32;;;;;;;19.50;14.13;;;;;;;-0.68;100.00;99607.72;5024757;28;20024;-57
2021/12/26 03:17:59;;;;;;;21.13;14.13;;;;;;;-0.68;100.00;99592.22;5026069;28;20025;-58
2021/12/26 03:20:31;;;;;;;19.73;13.85;;;;;;;-0.67;100.00;99601.66;5026526;28;20056;-57
2021/12/26 03:22:59;;;;;;;21.33;14.15;;;;;;;-0.68;100.00;99598.25;5026104;28;20094;-58
2021/12/26 03:25:25;;;;;;;18.85;13.75;;;;;;;-0.67;100.00;99604.22;5024719;28;20226;-58
2021/12/26 03:27:51;;;;;;;19.25;14.25;;;;;;;-0.67;100.00;99596.50;5007868;28;20031;-58
2021/12/26 03:30:21;;;;;;;20.25;14.40;;;;;;;-0.87;100.00;99567.63;5026565;28;20025;-58
2021/12/26 03:32:47;;;;;;;20.25;14.88;;;;;;;-0.63;100.00;99605.88;5026301;28;20047;-58
2021/12/26 03:35:13;;;;;;;19.98;14.27;;;;;;;-0.66;100.00;99605.94;5024816;28;20087;-58
2021/12/26 03:37:39;;;;;;;25.65;14.98;;;;;;;-0.58;100.00;99609.25;5026503;28;20855;-58
2021/12/26 03:40:06;;;;;;;21.88;14.63;;;;;;;-0.55;100.00;99614.34;5026447;28;20041;-58
2021/12/26 03:42:32;;;;;;;18.27;14.30;;;;;;;-0.54;100.00;99601.41;5025474;28;20230;-58
2021/12/26 03:44:58;;;;;;;21.65;14.07;;;;;;;-0.69;100.00;99575.91;5024834;28;20637;-58
2021/12/26 03:47:23;;;;;;;19.50;13.05;;;;;;;-0.89;100.00;99530.72;5027426;28;20036;-57
2021/12/26 03:49:50;;;;;;;17.88;14.05;;;;;;;-0.49;100.00;99596.16;5028852;28;20032;-58
2021/12/26 03:52:15;;;;;;;19.95;14.77;;;;;;;-0.49;100.00;99598.75;5029433;28;20035;-57
2021/12/26 03:54:40;;;;;;;19.90;14.18;;;;;;;-0.51;100.00;99595.34;5029092;28;20064;-57
2021/12/26 03:57:06;;;;;;;17.95;13.85;;;;;;;-0.49;100.00;99595.31;5029407;28;20049;-57
2021/12/26 03:59:31;;;;;;;22.10;13.70;;;;;;;-0.46;100.00;99593.53;5029898;28;20025;-57
2021/12/26 04:01:57;;;;;;;20.63;14.48;;;;;;;-0.46;100.00;99596.09;5029046;28;20068;-58
2021/12/26 04:04:23;;;;;;;23.60;14.75;;;;;;;-0.46;100.00;99588.38;5028975;28;20880;-59
2021/12/26 04:06:49;;;;;;;23.88;15.02;;;;;;;-0.43;100.00;99583.16;5027783;28;20035;-59
2021/12/26 04:09:15;;;;;;;18.85;13.77;;;;;;;-0.40;100.00;99584.81;5027805;28;20917;-59
2021/12/26 04:11:43;;;;;;;20.15;14.57;;;;;;;-0.54;100.00;99556.69;5029676;28;20078;-59
2021/12/26 04:14:09;;;;;;;19.25;13.82;;;;;;;-0.49;100.00;99556.63;5028206;28;20033;-58
2021/12/26 04:16:35;;;;;;;22.70;14.50;;;;;;;-0.52;100.00;99562.69;5029238;28;20039;-58
2021/12/26 04:19:00;;;;;;;21.38;14.25;;;;;;;-0.36;100.00;99583.88;5027404;28;20938;-59
2021/12/26 04:21:25;;;;;;;19.20;14.38;;;;;;;-0.33;100.00;99582.09;5011197;28;20993;-59
2021/12/26 04:23:51;;;;;;;21.60;15.20;;;;;;;-0.33;100.00;99574.34;5028564;28;20138;-58
2021/12/26 04:26:16;;;;;;;19.85;15.02;;;;;;;-0.66;100.00;99532.00;5028975;28;20059;-58
2021/12/26 04:28:42;;;;;;;21.35;13.77;;;;;;;-0.31;100.00;99582.06;5028836;28;20028;-58
2021/12/26 04:31:07;;;;;;;20.90;14.50;;;;;;;-0.29;100.00;99595.78;5027007;28;20024;-59
2021/12/26 04:33:32;;;;;;;20.52;14.38;;;;;;;-0.29;100.00;99581.16;5029947;28;20839;-59
2021/12/26 04:35:58;;;;;;;20.38;13.52;;;;;;;-0.26;100.00;99581.09;5028553;28;20860;-58
2021/12/26 04:38:23;;;;;;;28.60;14.52;;;;;;;-0.30;100.00;99587.19;5027519;28;20129;-58
2021/12/26 04:40:51;;;;;;;20.30;15.18;;;;;;;-0.26;100.00;99590.56;5027685;28;20262;-58
2021/12/26 04:43:17;;;;;;;21.52;14.95;;;;;;;-0.27;100.00;99587.13;5028047;28;20028;-59
2021/12/26 04:45:42;;;;;;;18.70;14.15;;;;;;;-0.24;100.00;99583.66;5028924;28;20378;-59
2021/12/26 04:48:07;;;;;;;19.98;14.18;;;;;;;-0.26;100.00;99575.94;5027998;28;20092;-59
2021/12/26 04:50:34;;;;;;;19.38;15.27;;;;;;;-0.27;100.00;99584.53;5026643;28;20032;-58
2021/12/26 04:53:00;;;;;;;22.90;16.30;;;;;;;-0.22;100.00;99577.56;5027479;28;20086;-58
2021/12/26 04:55:27;;;;;;;22.13;15.05;;;;;;;-0.21;100.00;99571.53;5028480;28;20029;-58
2021/12/26 04:57:52;;;;;;;24.20;15.82;;;;;;;-0.23;100.00;99570.72;5026619;28;20058;-58
2021/12/26 05:00:20;;;;;;;21.13;13.80;;;;;;;-0.22;100.00;99571.56;5028272;28;20037;-58
2021/12/26 05:02:47;;;;;;;24.50;15.10;;;;;;;-0.21;100.00;99571.53;5011441;28;20884;-58
2021/12/26 05:05:12;;;;;;;20.35;14.60;;;;;;;-0.19;100.00;99567.19;5042925;28;20028;-58
2021/12/26 05:07:39;;;;;;;20.38;14.68;;;;;;;-0.31;100.00;99553.69;5028311;28;20215;-58
2021/12/26 05:10:06;;;;;;;21.65;15.35;;;;;;;-0.22;100.00;99569.84;5028150;28;20032;-58
2021/12/26 05:12:31;;;;;;;25.30;15.45;;;;;;;-0.20;100.00;99564.63;5026179;28;20034;-58
2021/12/26 05:14:56;;;;;;;18.90;13.82;;;;;;;-0.17;100.00;99564.59;5028367;28;20024;-59
2021/12/26 05:17:22;;;;;;;18.15;14.48;;;;;;;-0.22;100.00;99567.25;5028764;28;20086;-59
2021/12/26 05:19:47;;;;;;;20.55;15.55;;;;;;;-0.17;100.00;99569.75;5026177;28;20815;-59
2021/12/26 05:22:12;;;;;;;23.02;14.95;;;;;;;-0.17;100.00;99555.09;5027883;28;20047;-58
2021/12/26 05:24:39;;;;;;;19.55;13.82;;;;;;;-0.17;100.00;99562.84;5026991;28;20096;-59
2021/12/26 05:27:04;;;;;;;20.38;14.45;;;;;;;-0.17;100.00;99560.25;5028095;28;20037;-59
2021/12/26 05:29:30;;;;;;;20.52;15.18;;;;;;;-0.16;100.00;99564.53;5027653;28;20132;-59
2021/12/26 05:31:55;;;;;;;21.38;15.07;;;;;;;-0.15;100.00;99561.09;5025906;28;20036;-59
2021/12/26 05:34:20;;;;;;;20.50;15.52;;;;;;;-0.21;100.00;99553.47;5028038;28;20025;-59
2021/12/26 05:36:47;;;;;;;21.35;15.35;;;;;;;-0.14;100.00;99557.63;5025894;28;20024;-59
2021/12/26 05:39:12;;;;;;;19.98;14.20;;;;;;;-0.13;100.00;99556.72;5027730;28;20031;-59
2021/12/26 05:41:38;;;;;;;19.70;14.73;;;;;;;-0.15;100.00;99548.19;5027397;28;20020;-59
2021/12/26 05:44:04;;;;;;;21.35;14.40;;;;;;;-0.14;100.00;99544.72;5027457;28;20915;-59
2021/12/26 05:46:30;;;;;;;20.67;14.70;;;;;;;-0.14;100.00;99544.72;5027919;28;20033;-59
2021/12/26 05:48:55;;;;;;;19.40;14.75;;;;;;;-0.13;100.00;99541.25;5026916;28;20031;-59
2021/12/26 05:51:20;;;;;;;22.15;15.57;;;;;;;-0.13;100.00;99546.41;5026264;28;20834;-59
2021/12/26 05:53:46;;;;;;;22.60;15.18;;;;;;;-0.11;100.00;99543.81;5025965;28;20028;-59
2021/12/26 05:56:11;;;;;;;23.83;16.17;;;;;;;-0.12;100.00;99542.94;5026869;28;20899;-59
2021/12/26 05:58:37;;;;;;;24.25;15.77;;;;;;;-0.14;100.00;99529.25;5027104;28;20190;-59
2021/12/26 06:01:03;;;;;;;24.95;16.40;;;;;;;-0.11;100.00;99534.34;5026724;28;20024;-59
2021/12/26 06:03:28;;;;;;;23.45;16.33;;;;;;;-0.10;100.00;99537.75;5026983;28;20020;-59
2021/12/26 06:05:53;;;;;;;22.83;16.00;;;;;;;-0.10;100.00;99536.00;5025894;28;20927;-59
2021/12/26 06:08:19;;;;;;;24.30;16.98;;;;;;;-0.21;100.00;99512.19;5027069;28;20063;-59
2021/12/26 06:10:44;;;;;;;24.75;16.50;;;;;;;-0.05;100.00;99529.03;5025012;28;20060;-59
2021/12/26 06:13:09;;;;;;;23.73;16.73;;;;;;;-0.03;100.00;99536.72;5027097;28;20542;-59
2021/12/26 06:15:35;;;;;;;24.27;16.20;;;;;;;-0.01;100.00;99535.84;5027037;28;20060;-59
2021/12/26 06:18:01;;;;;;;27.05;17.08;;;;;;;0.02;100.00;99534.91;5027000;28;20064;-59
2021/12/26 06:20:26;;;;;;;24.27;16.88;;;;;;;0.02;100.00;99534.06;5025568;28;20955;-59
2021/12/26 06:22:51;;;;;;;26.60;17.45;;;;;;;0.04;100.00;99540.03;5026906;28;20912;-59
2021/12/26 06:25:17;;;;;;;24.90;17.40;;;;;;;0.03;100.00;99535.78;5027345;28;20777;-59
2021/12/26 06:27:42;;;;;;;21.35;16.58;;;;;;;0.06;100.00;99540.88;5026091;28;20033;-59
2021/12/26 06:30:09;;;;;;;28.92;18.23;;;;;;;0.11;100.00;99549.34;5025778;28;20948;-59
2021/12/26 06:32:34;;;;;;;30.67;17.17;;;;;;;0.11;100.00;99541.59;5024821;28;20222;-59
2021/12/26 06:35:01;;;;;;;26.00;18.42;;;;;;;0.15;100.00;99548.41;5026846;28;20028;-58
2021/12/26 06:37:30;;;;;;;26.38;18.20;;;;;;;0.15;100.00;99546.66;5026641;28;20032;-58
2021/12/26 06:39:56;;;;;;;28.17;18.27;;;;;;;0.12;100.00;99541.56;5026764;28;20033;-58
2021/12/26 06:42:21;;;;;;;27.58;18.65;;;;;;;0.08;100.00;99534.78;5025387;28;20135;-58
2021/12/26 06:44:47;;;;;;;24.77;17.88;;;;;;;0.16;100.00;99535.47;5026048;28;20038;-59
2021/12/26 06:47:12;;;;;;;23.30;17.45;;;;;;;0.17;100.00;99537.16;5025113;28;20025;-58
2021/12/26 06:49:38;;;;;;;21.48;18.10;;;;;;;0.15;100.00;99530.31;5026368;28;20914;-58
2021/12/26 06:52:05;;;;;;;26.30;17.08;;;;;;;-0.18;100.00;99475.97;5026701;28;20083;-58
2021/12/26 06:54:30;;;;;;;24.42;17.70;;;;;;;0.15;100.00;99531.19;5026432;28;20106;-58
2021/12/26 06:56:56;;;;;;;26.38;18.98;;;;;;;0.14;100.00;99519.13;5025692;28;20778;-58
2021/12/26 06:59:21;;;;;;;26.73;18.05;;;;;;;0.15;100.00;99520.84;5024709;28;20895;-57
2021/12/26 07:01:46;;;;;;;24.73;17.75;;;;;;;0.16;100.00;99521.69;5024329;28;20020;-57
2021/12/26 07:04:12;;;;;;;26.85;17.60;;;;;;;0.15;100.00;99522.56;5024254;28;20055;-57
2021/12/26 07:06:37;;;;;;;25.38;16.90;;;;;;;0.15;100.00;99525.16;5025659;28;20799;-58
2021/12/26 07:09:03;;;;;;;24.17;18.42;;;;;;;0.19;100.00;99529.38;5023716;28;20034;-57
2021/12/26 07:11:28;;;;;;;25.15;17.95;;;;;;;0.20;100.00;99523.34;5024532;28;20035;-57
2021/12/26 07:13:56;;;;;;;28.25;19.10;;;;;;;0.22;100.00;99530.16;5025227;28;20086;-57
2021/12/26 07:16:23;;;;;;;25.42;17.98;;;;;;;-0.11;100.00;99477.53;5027295;28;20037;-54
2021/12/26 07:18:49;;;;;;;27.83;18.52;;;;;;;0.27;100.00;99530.06;5024826;28;20396;-54
2021/12/26 07:21:15;;;;;;;27.95;19.42;;;;;;;0.29;100.00;99533.44;5028335;28;20028;-54
2021/12/26 07:23:40;;;;;;;26.23;17.80;;;;;;;0.25;100.00;99536.97;5043672;28;20042;-57
2021/12/26 07:26:05;;;;;;;25.42;17.02;;;;;;;0.28;100.00;99526.56;5030862;28;20021;-57
2021/12/26 07:28:31;;;;;;;28.92;19.45;;;;;;;0.37;100.00;99534.97;5028715;28;20028;-57
2021/12/26 07:30:57;;;;;;;30.55;19.73;;;;;;;0.40;100.00;99542.66;5029043;28;20032;-56
2021/12/26 07:33:22;;;;;;;26.10;17.13;;;;;;;0.43;100.00;99544.31;5026190;28;20095;-55
2021/12/26 07:35:48;;;;;;;33.17;21.10;;;;;;;0.48;100.00;99537.31;5027418;28;20100;-52
2021/12/26 07:38:13;;;;;;;31.00;20.63;;;;;;;0.50;100.00;99535.53;5009717;28;20024;-54
2021/12/26 07:40:39;;;;;;;31.30;20.33;;;;;;;0.53;100.00;99535.47;5028282;28;20028;-57
2021/12/26 07:43:04;;;;;;;25.00;19.60;;;;;;;0.55;100.00;99541.44;5029552;28;20154;-51
2021/12/26 07:45:30;;;;;;;28.20;19.00;;;;;;;0.57;100.00;99544.00;5027600;28;20048;-56
2021/12/26 07:47:55;;;;;;;27.90;19.50;;;;;;;0.58;100.00;99541.38;5028406;28;20096;-55
2021/12/26 07:50:20;;;;;;;26.60;19.35;;;;;;;0.59;100.00;99540.50;5027595;28;20028;-58
2021/12/26 07:52:47;;;;;;;31.52;19.30;;;;;;;0.54;100.00;99534.59;5029025;28;20028;-53
2021/12/26 07:55:13;;;;;;;29.23;19.52;;;;;;;0.62;100.00;99540.41;5028129;28;20966;-53
2021/12/26 07:57:40;;;;;;;27.48;20.45;;;;;;;0.65;100.00;99542.91;5010632;28;20024;-57
2021/12/26 08:00:07;;;;;;;22.35;17.77;;;;;;;0.68;100.00;99548.00;5028534;28;20994;-58
2021/12/26 08:02:32;;;;;;;26.33;18.70;;;;;;;0.71;100.00;99544.53;5029194;28;20909;-57
2021/12/26 08:04:58;;;;;;;25.92;19.52;;;;;;;0.72;100.00;99546.22;5028798;28;20032;-57
2021/12/26 08:07:23;;;;;;;27.63;18.42;;;;;;;0.72;100.00;99544.47;5028682;28;20900;-57
2021/12/26 08:09:48;;;;;;;27.25;18.45;;;;;;;0.73;100.00;99541.00;5028787;28;20948;-57
2021/12/26 08:12:14;;;;;;;26.15;18.25;;;;;;;0.76;100.00;99542.66;5026555;28;20036;-57
2021/12/26 08:14:39;;;;;;;27.27;19.25;;;;;;;0.78;100.00;99539.16;5027110;28;20083;-57
2021/12/26 08:17:05;;;;;;;29.45;18.42;;;;;;;0.81;100.00;99544.25;5026808;28;20135;-57
2021/12/26 08:19:30;;;;;;;25.88;18.83;;;;;;;0.84;100.00;99544.19;5027785;28;20901;-57
2021/12/26 08:21:56;;;;;;;24.77;18.85;;;;;;;0.88;100.00;99550.13;5026173;28;20862;-58
2021/12/26 08:24:26;;;;;;;25.55;18.95;;;;;;;0.91;100.00;99550.06;5026315;28;20024;-57
2021/12/26 08:26:52;;;;;;;30.15;19.67;;;;;;;0.93;100.00;99549.13;5027424;28;20132;-57
2021/12/26 08:29:21;;;;;;;28.08;19.30;;;;;;;0.72;100.00;99510.03;5026839;28;20058;-57
2021/12/26 08:31:47;;;;;;;23.17;18.45;;;;;;;0.76;100.00;99509.91;5027116;28;20047;-57
2021/12/26 08:34:16;;;;;;;30.35;18.98;;;;;;;0.98;100.00;99542.09;5027766;28;20031;-57
2021/12/26 08:36:42;;;;;;;26.00;17.65;;;;;;;1.00;100.00;99531.72;5026199;28;20813;-57
2021/12/26 08:39:07;;;;;;;26.83;18.55;;;;;;;1.02;100.00;99538.53;5027968;28;20091;-57
2021/12/26 08:41:32;;;;;;;24.92;18.48;;;;;;;1.02;100.00;99538.53;5026580;28;20033;-57
2021/12/26 08:43:58;;;;;;;27.85;19.80;;;;;;;1.06;100.00;99538.47;5027405;28;20024;-57
2021/12/26 08:46:23;;;;;;;31.40;19.80;;;;;;;1.05;100.00;99545.38;5029318;28;20063;-57
2021/12/26 08:48:49;;;;;;;33.50;19.08;;;;;;;1.07;100.00;99535.84;5028142;28;20941;-57
2021/12/26 08:51:14;;;;;;;23.60;17.17;;;;;;;1.10;100.00;99545.25;5027599;28;20773;-57
2021/12/26 08:53:40;;;;;;;28.98;20.08;;;;;;;1.14;100.00;99542.56;5029727;28;20867;-58
2021/12/26 08:56:05;;;;;;;27.88;19.50;;;;;;;1.20;100.00;99544.13;5026267;28;20028;-57
2021/12/26 08:58:30;;;;;;;25.40;19.15;;;;;;;1.23;100.00;99544.03;5029788;28;20131;-57
2021/12/26 09:00:56;;;;;;;27.60;18.10;;;;;;;0.95;100.00;99490.44;5029107;28;20958;-57
2021/12/26 09:03:22;;;;;;;28.45;19.05;;;;;;;1.26;100.00;99542.22;5028230;28;20031;-57
2021/12/26 09:05:47;;;;;;;26.63;18.25;;;;;;;1.28;100.00;99539.63;5026647;28;20798;-57
2021/12/26 09:08:13;;;;;;;25.48;18.17;;;;;;;1.30;100.00;99543.84;5026675;28;20086;-57
2021/12/26 09:10:39;;;;;;;27.73;18.60;;;;;;;1.33;100.00;99543.78;5029424;28;20819;-58
2021/12/26 09:13:06;;;;;;;24.95;19.17;;;;;;;1.37;100.00;99540.22;5028330;28;20040;-58
2021/12/26 09:15:31;;;;;;;26.55;18.05;;;;;;;1.39;100.00;99542.75;5027250;28;20035;-58
2021/12/26 09:17:57;;;;;;;22.05;17.30;;;;;;;1.42;100.00;99543.50;5027347;28;20024;-58
2021/12/26 09:20:23;;;;;;;27.30;19.00;;;;;;;1.47;100.00;99545.97;5027733;28;20033;-58
2021/12/26 09:22:49;;;;;;;25.67;18.77;;;;;;;1.57;100.00;99542.25;5027736;28;20041;-58
2021/12/26 09:25:14;;;;;;;26.23;18.33;;;;;;;1.61;100.00;99543.03;5026605;28;20133;-58
2021/12/26 09:27:39;;;;;;;26.48;17.77;;;;;;;1.67;100.00;99543.69;5026844;28;20037;-58
2021/12/26 09:30:08;;;;;;;29.67;18.58;;;;;;;1.69;100.00;99541.91;5026540;28;20037;-58
2021/12/26 09:32:35;;;;;;;23.38;17.90;;;;;;;1.75;100.00;99540.91;5028326;28;20034;-58
2021/12/26 09:35:00;;;;;;;25.55;18.25;;;;;;;1.87;100.00;99545.72;5026258;28;20028;-58
2021/12/26 09:37:26;;;;;;;24.10;18.60;;;;;;;1.94;100.00;99544.66;5028123;28;20079;-57
2021/12/26 09:39:53;;;;;;;24.70;18.35;;;;;;;1.84;100.00;99520.75;5060027;28;20028;-58
2021/12/26 09:42:18;;;;;;;27.13;18.42;;;;;;;1.99;100.00;99540.19;5028603;28;20036;-58
2021/12/26 09:44:44;;;;;;;24.73;17.40;;;;;;;2.03;100.00;99541.78;5059344;28;20257;-60
2021/12/26 09:47:10;;;;;;;23.33;16.42;;;;;;;2.05;100.00;99540.84;5026461;28;20032;-58
2021/12/26 09:49:35;;;;;;;24.58;17.02;;;;;;;2.12;100.00;99546.72;5026792;28;20033;-58
2021/12/26 09:52:01;;;;;;;29.17;18.25;;;;;;;2.18;100.00;99545.66;5025413;28;20083;-57
2021/12/26 09:54:27;;;;;;;25.35;18.02;;;;;;;2.21;100.00;99542.97;5026242;28;20032;-58
2021/12/26 09:56:52;;;;;;;25.92;17.75;;;;;;;2.23;100.00;99543.81;5025322;28;20060;-58
2021/12/26 09:59:21;;;;;;;21.90;16.52;;;;;;;2.24;100.00;99546.31;5027699;28;20028;-58
2021/12/26 10:01:49;;;;;;;22.27;17.05;;;;;;;2.20;100.00;99528.34;5025961;28;20025;-57
2021/12/26 10:04:23;;;;;;;22.33;16.88;;;;;;;2.32;100.00;99543.50;5026423;28;20028;-58
2021/12/26 10:06:50;;;;;;;;;;;;;;;2.36;100.00;99526.97;5027670;28;20032;-58
2021/12/26 10:09:17;;;;;;;21.42;17.05;;;;;;;2.42;100.00;99524.19;5026927;28;19912;-58
2021/12/26 10:11:47;;;;;;;25.40;17.55;;;;;;;2.41;100.00;99522.47;5025584;28;20063;-58
2021/12/26 10:14:15;;;;;;;24.67;17.00;;;;;;;2.45;100.00;99516.31;5026588;28;20140;-58
2021/12/26 10:16:44;;;;;;;24.83;16.38;;;;;;;2.49;100.00;99517.91;5027030;28;20090;-58
2021/12/26 10:19:10;;;;;;;31.38;18.83;;;;;;;2.52;100.00;99515.22;5026416;28;20230;-58
2021/12/26 10:21:41;;;;;;;24.13;15.73;;;;;;;2.53;100.00;99502.19;5025521;28;20830;-58
2021/12/26 10:24:17;;;;;;;27.73;16.55;;;;;;;2.53;100.00;99497.00;5025366;28;20913;-59
2021/12/26 10:26:51;;;;;;;21.67;15.90;;;;;;;2.61;100.00;99498.50;5042459;28;20029;-58
2021/12/26 10:29:17;;;;;;;24.98;16.63;;;;;;;2.69;100.00;99502.56;5026426;28;20024;-57
2021/12/26 10:31:44;;;;;;;26.98;17.00;;;;;;;2.79;100.00;99503.97;5026876;28;20136;-58
2021/12/26 10:34:14;;;;;;;22.70;17.02;;;;;;;2.89;100.00;99504.50;5026953;28;20029;-58
2021/12/26 10:36:45;;;;;;;21.52;17.10;;;;;;;2.97;100.00;99503.31;5026621;28;20032;-58
2021/12/26 10:39:17;;;;;;;25.23;17.67;;;;;;;3.03;100.00;99497.09;5026919;28;20032;-58
2021/12/26 10:41:48;;;;;;;24.40;17.38;;;;;;;3.14;100.00;99489.81;5027477;28;20164;-58
2021/12/26 10:44:28;;;;;;;23.15;16.38;;;;;;;3.22;100.00;99489.50;5026847;28;20132;-58
2021/12/26 10:47:09;;;;;;;24.60;16.80;;;;;;;3.22;100.00;99482.56;5024806;28;20032;-58
2021/12/26 10:49:38;;;;;;;20.77;15.80;;;;;;;3.28;100.00;99489.31;5025151;28;20032;-58
2021/12/26 10:52:14;;;;;;;23.65;17.33;;;;;;;3.39;100.00;99490.63;5025858;28;21113;-58
2021/12/26 10:54:41;;;;;;;27.48;16.42;;;;;;;3.46;100.00;99488.66;5026121;28;20039;-58
2021/12/26 10:57:14;;;;;;;20.92;16.55;;;;;;;3.49;100.00;99481.59;5011739;28;20983;-58
2021/12/26 10:59:44;;;;;;;29.08;16.20;;;;;;;3.53;100.00;99482.34;5030234;28;20336;-58
2021/12/26 11:02:09;;;;;;;24.40;15.43;;;;;;;3.56;100.00;99490.84;5030360;28;20024;-58
2021/12/26 11:04:36;;;;;;;19.48;14.48;;;;;;;3.59;100.00;99482.09;5030179;28;20067;-59
2021/12/26 11:07:10;;;;;;;23.60;15.93;;;;;;;3.59;100.00;99482.09;5030042;28;20029;-59
2021/12/26 11:09:36;;;;;;;24.55;16.13;;;;;;;3.53;100.00;99456.38;5012893;28;20033;-59
2021/12/26 11:12:09;;;;;;;21.05;15.90;;;;;;;3.64;100.00;99475.00;5029786;28;20135;-58
2021/12/26 11:14:57;;;;;;;23.38;16.25;;;;;;;3.72;100.00;99467.75;5030518;28;20089;-59
2021/12/26 11:17:39;;;;;;;24.70;16.75;;;;;;;3.83;100.00;99475.16;5030108;28;20052;-58